Wednesday, September 19, 2018, 3:06 PM EDT
Back to Local

KFIG, Clearfield-lawrence Airport

Location: Clearfield, PA, United States Lat: 41.05
Local Time: 3:06 PM EDT (19:06 GMT) Lon: -78.417
Time Zone: US/Eastern Elev: 1515 ft

Show me the last for .
Show Decoded

2018-09-19 13:54 METAR KFIG 191754Z AUTO 01003KT 10SM FEW075 26/16 A3003 RMK AO2 SLP160 T02610161
                 10267 20178 55006 =
2018-09-19 12:54 METAR KFIG 191654Z AUTO 33004KT 10SM CLR 25/16 A3003 RMK AO2 SLP161 T02500156 =
2018-09-19 11:54 METAR KFIG 191554Z AUTO 00000KT 10SM FEW100 23/16 A3004 RMK AO2 SLP163 T02280161
                 =
2018-09-19 10:54 METAR KFIG 191454Z AUTO 33005KT 10SM FEW017 BKN085 21/17 A3005 RMK AO2 SLP169
                 T02110172 51016 =
2018-09-19 10:40 METAR KFIG 191440Z AUTO 33004KT 10SM FEW009 SCT019 OVC085 21/17 A3005 RMK AO2
                 T02060172 =
2018-09-19 10:32 METAR KFIG 191432Z AUTO 34004KT 10SM FEW010 BKN019 OVC085 20/17 A3005 RMK AO2
                 T02000172 =
2018-09-19 10:17 METAR KFIG 191417Z AUTO 33004KT 10SM BKN010 BKN015 OVC090 20/18 A3005 RMK AO2
                 CIG 005V012 T02000183 =
2018-09-19 09:54 METAR KFIG 191354Z AUTO 00000KT 9SM BKN008 OVC012 19/18 A3003 RMK AO2 CIG
                 004V011 SLP163 T01940183 =
2018-09-19 09:13 METAR KFIG 191313Z AUTO 24004KT 5SM BR SCT002 SCT006 BKN012 18/18 A3002 RMK AO2
                 T01780178 =
2018-09-19 09:01 METAR KFIG 191301Z AUTO 24003KT 3SM BR BKN002 18/18 A3002 RMK AO2 T01780178 =
2018-09-19 08:54 METAR KFIG 191254Z AUTO 20003KT 1 3/4SM BR OVC002 18/18 A3002 RMK AO2 SLP158
                 T01780178 =
2018-09-19 08:13 METAR KFIG 191213Z AUTO 20004KT 1SM BR VV002 18/18 A3001 RMK AO2 T01780178 =
2018-09-19 07:54 METAR KFIG 191154Z AUTO 23004KT 1/4SM FG VV002 18/18 A3000 RMK AO2 SLP152
                 T01780178 10178 20167 51012 =
2018-09-19 07:18 METAR KFIG 191118Z AUTO 23004KT 1/4SM FG BKN002 BKN012 17/17 A2999 RMK AO2
                 T01720172 =
2018-09-19 07:09 METAR KFIG 191109Z AUTO 22003KT 1 3/4SM BR FEW002 SCT013 17/17 A2999 RMK AO2
                 T01720172 =
2018-09-19 07:05 METAR KFIG 191105Z AUTO 19003KT 3SM BR SCT013 17/17 A2999 RMK AO2 T01720172 =
2018-09-19 06:54 METAR KFIG 191054Z AUTO 25003KT 5SM BR BKN013 18/17 A2999 RMK AO2 SLP147
                 T01780172 =
2018-09-19 06:49 METAR KFIG 191049Z AUTO 24003KT 5SM BR SCT007 BKN013 18/18 A2999 RMK AO2 =
2018-09-19 06:08 METAR KFIG 191008Z AUTO 00000KT 3SM BR OVC005 18/18 A2998 RMK AO2 T01780178 =
2018-09-19 05:54 METAR KFIG 190954Z AUTO 00000KT 2SM BR OVC005 18/18 A2997 RMK AO2 SLP138
                 T01780178 =
2018-09-19 05:43 METAR KFIG 190943Z AUTO 00000KT 2SM BR OVC005 18/18 A2997 RMK AO2 T01780178 =
2018-09-19 05:30 METAR KFIG 190930Z AUTO 00000KT 1/2SM FG OVC005 18/18 A2996 RMK AO2 T01780178 =
2018-09-19 05:21 METAR KFIG 190921Z AUTO 00000KT 3/4SM BR OVC004 18/17 A2995 RMK AO2 T01780172 =
2018-09-19 05:10 METAR KFIG 190910Z AUTO 00000KT 5SM BR OVC004 18/18 A2995 RMK AO2 T01780178 =
2018-09-19 05:02 METAR KFIG 190902Z AUTO 00000KT 2SM BR OVC004 18/18 A2995 RMK AO2 T01780178 =
2018-09-19 04:54 METAR KFIG 190854Z AUTO 00000KT 1/2SM FG VV004 17/17 A2995 RMK AO2 SLP132
                 T01720172 53004 =
2018-09-19 04:45 METAR KFIG 190845Z AUTO 00000KT 1/4SM FG VV003 17/17 A2995 RMK AO2 T01720172 =
2018-09-19 03:54 METAR KFIG 190754Z AUTO 21003KT 1/4SM FG VV002 17/17 A2994 RMK AO2 SLP128
                 T01720172 =
2018-09-19 03:49 METAR KFIG 190749Z AUTO 00000KT 1/4SM FG VV003 17/17 A2994 RMK AO2 =
2018-09-19 03:37 METAR KFIG 190737Z AUTO 23004KT 1/2SM FG VV003 17/17 A2994 RMK AO2 T01720172 =
2018-09-19 03:28 METAR KFIG 190728Z AUTO 24005KT 1/4SM FG VV003 17/17 A2994 RMK AO2 T01720172 =
2018-09-19 03:19 METAR KFIG 190719Z AUTO 23004KT 1/4SM FG VV005 17/17 A2994 RMK AO2 T01670167 =
2018-09-19 03:07 METAR KFIG 190707Z AUTO 00000KT 3/4SM BR VV009 17/17 A2994 RMK AO2 T01720172 =
2018-09-19 03:01 METAR KFIG 190701Z AUTO 19003KT 1SM BR VV010 17/17 A2994 RMK AO2 T01720172 =
2018-09-19 02:54 METAR KFIG 190654Z AUTO 00000KT 3/4SM BR VV009 17/17 A2994 RMK AO2 SLP129
                 T01720172 =
2018-09-19 02:45 METAR KFIG 190645Z AUTO 00000KT 1/2SM FG VV005 17/17 A2994 RMK AO2 T01720172 =
2018-09-19 02:31 METAR KFIG 190631Z AUTO 00000KT 1/4SM FG VV003 17/17 A2994 RMK AO2 T01720172 =
2018-09-19 02:14 METAR KFIG 190614Z AUTO 00000KT 1/4SM FG VV007 17/17 A2994 RMK AO2 T01720172 =
2018-09-19 01:54 METAR KFIG 190554Z AUTO 00000KT 1/2SM FG VV011 18/18 A2995 RMK AO2 SLP131
                 T01780178 10228 20178 51003 =
2018-09-19 01:51 METAR KFIG 190551Z AUTO 00000KT 3/4SM BR VV011 18/18 A2995 RMK AO2 =
2018-09-19 01:49 METAR KFIG 190549Z AUTO 00000KT 1 1/2SM BR FEW010 18/18 A2994 RMK AO2 =
2018-09-19 01:28 METAR KFIG 190528Z AUTO 00000KT 3SM BR FEW012 18/18 A2994 RMK AO2 T01830183 =
2018-09-19 01:24 METAR KFIG 190524Z AUTO 00000KT 1 3/4SM BR SCT010 18/18 A2994 RMK AO2 T01830178
                 =
2018-09-19 01:13 METAR KFIG 190513Z AUTO 00000KT 2SM BR SCT004 18/18 A2994 RMK AO2 T01780178 =
2018-09-19 01:09 METAR KFIG 190509Z AUTO 00000KT 1SM BR VV004 18/18 A2994 RMK AO2 T01780178 =
2018-09-19 01:03 METAR KFIG 190503Z AUTO 00000KT 1/4SM FG VV004 18/18 A2994 RMK AO2 T01780178 =
2018-09-19 00:54 METAR KFIG 190454Z AUTO 00000KT 3/4SM BR VV003 18/18 A2994 RMK AO2 SLP128
                 T01830178 402720178 =
2018-09-19 00:52 METAR KFIG 190452Z AUTO 00000KT 1 1/2SM BR FEW003 18/18 A2994 RMK AO2 =
2018-09-19 00:14 METAR KFIG 190414Z AUTO 00000KT 3SM BR FEW005 18/18 A2994 RMK AO2 T01830178 =
2018-09-19 00:10 METAR KFIG 190410Z AUTO 00000KT 1SM BR VV004 18/18 A2994 RMK AO2 T01830178 =
2018-09-19 00:03 METAR KFIG 190403Z AUTO 00000KT 1 1/2SM BR FEW005 18/18 A2994 RMK AO2 T01830178
                 =
2018-09-18 23:54 METAR KFIG 190354Z AUTO 00000KT 9SM CLR 19/18 A2995 RMK AO2 SLP132 T01890183 =
2018-09-18 23:03 METAR KFIG 190303Z AUTO 00000KT 3SM BR CLR 18/18 A2994 RMK AO2 T01830183 =
2018-09-18 22:54 METAR KFIG 190254Z AUTO 00000KT 1 1/2SM BR FEW003 18/18 A2994 RMK AO2 SLP130
                 T01830183 50004 =
2018-09-18 22:52 METAR KFIG 190252Z AUTO 36003KT 1 3/4SM BR FEW003 19/18 A2994 RMK AO2 =
2018-09-18 21:54 METAR KFIG 190154Z AUTO 21003KT 7SM CLR 20/19 A2994 RMK AO2 SLP129 T02000194 =
2018-09-18 20:54 METAR KFIG 190054Z AUTO 28004KT 10SM CLR 22/19 A2993 RMK AO2 SLP127 T02220189 =
2018-09-18 19:54 METAR KFIG 182354Z AUTO 28006KT 10SM CLR 23/19 A2992 RMK AO2 SLP123 T02330189
                 10272 20233 53010 =
2018-09-18 18:54 METAR KFIG 182254Z AUTO 27004KT 10SM FEW043 24/19 A2991 RMK AO2 SLP118 T02440194
                 =
2018-09-18 17:54 METAR KFIG 182154Z AUTO 29008KT 10SM FEW038 26/19 A2990 RMK AO2 SLP113 T02560194
                 =
2018-09-18 16:54 METAR KFIG 182054Z AUTO 31007KT 10SM FEW034 27/19 A2989 RMK AO2 SLP111 T02670194
                 56007 =
2018-09-18 15:54 METAR KFIG 181954Z AUTO 30009KT 10SM FEW030 SCT046 BKN065 27/19 A2989 RMK AO2
                 SLP110 T02720194 =

Support USWX by starting your Amazon purchase here.